Time;durP1;ratioP1;P1;durP2;ratioP2;P2;SDS_P1;SDS_P2;PMS_P1;PMS_P2;Temp;Humidity;BMP_temperature;BMP_pressure;BME280_temperature;BME280_humidity;BME280_pressure;Samples;Min_cycle;Max_cycle;Signal;HPM_P1;HPM_P2
2023/05/18 00:00:23;;;;;;;;;;;15.30;74.40;;;;;;4958534;29;19911;-96
2023/05/18 00:02:53;;;;;;;;;;;15.20;75.10;;;;;;4941239;29;19917;-96
2023/05/18 00:05:32;;;;;;;;;;;15.10;75.10;;;;;;4958373;29;19918;-96
2023/05/18 00:08:07;;;;;;;;;;;15.10;75.40;;;;;;4958686;29;19915;-96
2023/05/18 00:10:34;;;;;;;;;;;15.00;75.20;;;;;;4941950;29;19895;-96
2023/05/18 00:13:07;;;;;;;;;;;15.00;75.60;;;;;;4942175;29;20016;-96
2023/05/18 00:15:35;;;;;;;;;;;15.00;75.50;;;;;;4958532;29;19910;-96
2023/05/18 00:18:05;;;;;;;;;;;15.00;74.40;;;;;;4941620;29;19911;-96
2023/05/18 00:20:33;;;;;;;;;;;14.90;74.40;;;;;;4940218;29;19966;-96
2023/05/18 00:23:09;;;;;;;;;;;14.90;74.80;;;;;;4940137;29;19950;-96
2023/05/18 00:25:35;;;;;;;;;;;14.80;75.00;;;;;;4940055;29;19915;-96
2023/05/18 00:28:02;;;;;;;;;;;14.80;75.10;;;;;;4941345;29;19926;-96
2023/05/18 00:30:28;;;;;;;;;;;14.80;75.10;;;;;;4941021;29;19918;-96
2023/05/18 00:32:57;;;;;;;;;;;14.80;75.10;;;;;;4941288;29;19958;-96
2023/05/18 00:35:25;;;;;;;;;;;14.80;75.20;;;;;;4940776;29;19895;-96
2023/05/18 00:37:55;;;;;;;;;;;14.80;75.20;;;;;;4941692;29;19899;-96
2023/05/18 00:40:25;;;;;;;;;;;14.80;74.80;;;;;;4941529;29;19911;-96
2023/05/18 00:42:54;;;;;;;;;;;14.90;75.40;;;;;;4958579;29;19911;-96
2023/05/18 00:45:22;;;;;;;;;;;14.90;76.40;;;;;;4942058;29;19904;-96
2023/05/18 00:47:54;;;;;;;;;;;14.90;79.00;;;;;;4941292;29;19915;-96
2023/05/18 00:50:25;;;;;;;;;;;14.80;78.50;;;;;;4941834;29;19911;-96
2023/05/18 00:52:56;;;;;;;;;;;14.70;78.20;;;;;;4958936;29;19918;-96
2023/05/18 00:55:28;;;;;;;;;;;14.60;78.30;;;;;;4941362;29;19906;-96
2023/05/18 00:58:01;;;;;;;;;;;14.50;78.60;;;;;;4958091;29;19930;-96
2023/05/18 01:00:32;;;;;;;;;;;14.50;78.70;;;;;;4941609;29;19911;-96
2023/05/18 01:03:00;;;;;;;;;;;14.50;78.80;;;;;;4941604;29;19895;-96
2023/05/18 01:05:33;;;;;;;;;;;14.50;78.50;;;;;;4958679;29;19911;-96
2023/05/18 01:08:02;;;;;;;;;;;14.50;78.60;;;;;;4941398;29;19921;-96
2023/05/18 01:10:40;;;;;;;;;;;14.40;79.60;;;;;;4940962;29;19993;-96
2023/05/18 01:13:20;;;;;;;;;;;14.40;79.60;;;;;;4941080;29;19911;-96
2023/05/18 01:15:49;;;;;;;;;;;14.20;80.30;;;;;;4940271;29;19918;-96
2023/05/18 01:18:31;;;;;;;;;;;14.10;80.30;;;;;;4940517;29;19911;-96
2023/05/18 01:21:14;;;;;;;;;;;14.00;81.00;;;;;;4940659;29;20004;-96
2023/05/18 01:23:55;;;;;;;;;;;14.00;81.30;;;;;;4940550;29;19911;-96
2023/05/18 01:26:28;;;;;;;;;;;14.00;81.40;;;;;;4939925;29;19895;-96
2023/05/18 01:28:59;;;;;;;;;;;13.90;81.80;;;;;;4940053;29;19915;-96
2023/05/18 01:31:26;;;;;;;;;;;13.80;82.50;;;;;;4940627;29;19911;-96
2023/05/18 01:33:52;;;;;;;;;;;13.70;82.70;;;;;;4939987;29;19917;-96
2023/05/18 01:36:22;;;;;;;;;;;13.60;82.20;;;;;;4940344;29;19911;-96
2023/05/18 01:38:53;;;;;;;;;;;13.60;82.60;;;;;;4943969;29;19974;-96
2023/05/18 01:41:33;;;;;;;;;;;13.50;82.40;;;;;;4944966;29;19971;-96
2023/05/18 01:44:23;;;;;;;;;;;13.50;82.70;;;;;;4944516;29;19914;-96
2023/05/18 01:47:03;;;;;;;;;;;13.40;85.10;;;;;;4943101;29;19911;-96
2023/05/18 01:52:07;;;;;;;;;;;13.40;82.20;;;;;;5574747;23;19926;-96
2023/05/18 01:54:38;;;;;;;;;;;13.40;82.30;;;;;;4944993;29;19910;-96
2023/05/18 01:57:06;;;;;;;;;;;13.30;81.80;;;;;;4945511;29;19895;-96
2023/05/18 01:59:37;;;;;;;;;;;13.30;81.60;;;;;;4945509;29;19910;-96
2023/05/18 02:02:07;;;;;;;;;;;13.20;81.70;;;;;;4944529;29;19917;-96
2023/05/18 02:04:34;;;;;;;;;;;13.10;81.70;;;;;;4943787;29;19911;-96
2023/05/18 02:07:00;;;;;;;;;;;13.10;81.80;;;;;;4944058;29;20421;-96
2023/05/18 02:09:28;;;;;;;;;;;13.10;82.80;;;;;;4943527;29;19915;-96
2023/05/18 02:11:55;;;;;;;;;;;13.10;83.70;;;;;;4942915;29;19918;-96
2023/05/18 02:14:23;;;;;;;;;;;13.00;84.30;;;;;;4942726;29;19961;-96
2023/05/18 02:16:51;;;;;;;;;;;12.90;84.30;;;;;;4942317;29;19915;-96
2023/05/18 02:19:18;;;;;;;;;;;12.90;84.00;;;;;;4942586;29;19935;-96
2023/05/18 02:21:44;;;;;;;;;;;12.80;84.50;;;;;;4942567;29;19911;-96
2023/05/18 02:24:13;;;;;;;;;;;12.80;84.50;;;;;;4942046;29;19911;-96
2023/05/18 02:26:40;;;;;;;;;;;12.80;84.60;;;;;;4941567;29;19911;-96
2023/05/18 02:29:08;;;;;;;;;;;12.80;84.80;;;;;;4941765;29;19996;-96
2023/05/18 02:31:34;;;;;;;;;;;12.80;84.60;;;;;;4942658;29;19902;-96
2023/05/18 02:34:01;;;;;;;;;;;12.70;84.30;;;;;;4925525;29;19980;-96
2023/05/18 02:36:35;;;;;;;;;;;12.60;83.20;;;;;;4939568;29;19911;-96
2023/05/18 02:39:05;;;;;;;;;;;12.60;83.70;;;;;;4922720;29;19911;-96
2023/05/18 02:41:32;;;;;;;;;;;12.60;83.30;;;;;;4922863;29;19918;-96
2023/05/18 02:44:01;;;;;;;;;;;12.50;83.80;;;;;;4922273;29;19911;-96
2023/05/18 02:46:28;;;;;;;;;;;12.50;83.80;;;;;;4939226;29;19911;-96
2023/05/18 02:48:54;;;;;;;;;;;12.40;83.30;;;;;;4938602;29;19915;-96
2023/05/18 02:51:22;;;;;;;;;;;12.40;83.70;;;;;;4938253;29;19915;-96
2023/05/18 02:53:48;;;;;;;;;;;12.30;83.40;;;;;;4920661;29;19918;-96
2023/05/18 02:56:16;;;;;;;;;;;12.30;83.90;;;;;;4921424;29;19936;-96
2023/05/18 02:58:42;;;;;;;;;;;12.20;84.30;;;;;;4922133;29;20394;-96
2023/05/18 03:01:16;;;;;;;;;;;12.20;84.00;;;;;;4921506;29;19939;-96
2023/05/18 03:03:42;;;;;;;;;;;12.10;84.80;;;;;;4921709;29;19915;-96
2023/05/18 03:06:09;;;;;;;;;;;12.10;84.60;;;;;;4922122;29;19999;-96
2023/05/18 03:08:39;;;;;;;;;;;12.10;84.40;;;;;;4938710;29;19923;-96
2023/05/18 03:11:10;;;;;;;;;;;12.00;83.70;;;;;;4922554;29;19895;-96
2023/05/18 03:13:36;;;;;;;;;;;12.00;83.10;;;;;;4939544;29;19915;-96
2023/05/18 03:16:06;;;;;;;;;;;12.00;83.00;;;;;;4921830;29;19922;-96
2023/05/18 03:18:35;;;;;;;;;;;12.00;83.80;;;;;;4921404;29;19922;-96
2023/05/18 03:21:02;;;;;;;;;;;11.90;85.70;;;;;;4922052;29;19941;-96
2023/05/18 03:23:29;;;;;;;;;;;11.80;84.30;;;;;;4922000;29;19911;-96
2023/05/18 03:25:55;;;;;;;;;;;11.80;84.60;;;;;;4922113;29;19912;-96
2023/05/18 03:28:21;;;;;;;;;;;11.80;85.30;;;;;;4922441;29;19915;-96
2023/05/18 03:30:53;;;;;;;;;;;11.80;85.30;;;;;;4921787;29;19935;-96
2023/05/18 03:33:20;;;;;;;;;;;11.80;85.30;;;;;;4939072;29;19911;-96
2023/05/18 03:35:51;;;;;;;;;;;11.80;85.60;;;;;;4921931;29;19911;-96
2023/05/18 03:38:19;;;;;;;;;;;11.70;86.20;;;;;;4921781;29;19911;-96
2023/05/18 03:40:46;;;;;;;;;;;11.70;86.20;;;;;;4921577;29;19911;-96
2023/05/18 03:43:13;;;;;;;;;;;11.70;86.70;;;;;;4921459;29;19993;-96
2023/05/18 03:45:39;;;;;;;;;;;11.70;86.70;;;;;;4938119;29;19911;-96
2023/05/18 03:48:09;;;;;;;;;;;11.70;86.70;;;;;;4938186;29;19923;-96
2023/05/18 03:50:35;;;;;;;;;;;11.70;86.70;;;;;;4921543;29;20431;-96
2023/05/18 03:53:04;;;;;;;;;;;11.60;86.10;;;;;;4935611;29;19923;-96
2023/05/18 03:55:30;;;;;;;;;;;11.60;85.80;;;;;;4940033;29;19895;-96
2023/05/18 03:57:58;;;;;;;;;;;11.60;87.10;;;;;;4940405;29;19911;-96
2023/05/18 04:00:23;;;;;;;;;;;11.50;86.40;;;;;;4938428;29;19917;-96
2023/05/18 04:02:50;;;;;;;;;;;11.30;86.90;;;;;;4938767;29;19918;-96
2023/05/18 04:05:17;;;;;;;;;;;11.20;88.00;;;;;;4939508;29;19920;-96
2023/05/18 04:07:45;;;;;;;;;;;11.20;87.90;;;;;;4939391;29;19962;-96
2023/05/18 04:10:13;;;;;;;;;;;11.20;87.40;;;;;;4939433;29;19911;-96
2023/05/18 04:12:39;;;;;;;;;;;11.20;87.50;;;;;;4938138;29;19911;-96
2023/05/18 04:15:06;;;;;;;;;;;11.20;87.50;;;;;;4939085;29;19966;-96
2023/05/18 04:17:34;;;;;;;;;;;11.30;87.30;;;;;;4939930;29;19982;-96
2023/05/18 04:20:03;;;;;;;;;;;11.30;87.30;;;;;;4939269;29;19935;-96
2023/05/18 04:22:46;;;;;;;;;;;11.30;87.40;;;;;;4940575;29;19934;-96
2023/05/18 04:25:15;;;;;;;;;;;11.20;87.60;;;;;;4941067;29;19970;-96
2023/05/18 04:27:49;;;;;;;;;;;11.10;88.00;;;;;;4942953;29;19910;-96
2023/05/18 04:30:20;;;;;;;;;;;11.10;88.10;;;;;;4944296;29;19919;-96
2023/05/18 04:33:19;;;;;;;;;;;11.10;88.20;;;;;;4944656;29;19919;-96
2023/05/18 04:36:19;;;;;;;;;;;11.10;88.40;;;;;;4960517;28;19926;-96
2023/05/18 05:07:05;;;;;;;;;;;12.00;89.10;;;;;;5756874;23;19935;-96
2023/05/18 05:15:05;;;;;;;;;;;12.50;87.60;;;;;;5666680;23;19926;-96
2023/05/18 05:17:31;;;;;;;;;;;12.60;84.10;;;;;;4945587;29;19915;-96
2023/05/18 05:19:58;;;;;;;;;;;12.70;84.20;;;;;;4945051;29;19930;-96
2023/05/18 05:22:27;;;;;;;;;;;12.90;83.90;;;;;;4945440;29;20386;-96
2023/05/18 05:24:58;;;;;;;;;;;13.00;84.10;;;;;;4961049;29;19997;-96
2023/05/18 05:27:27;;;;;;;;;;;13.20;83.60;;;;;;4944680;29;19902;-96
2023/05/18 05:29:55;;;;;;;;;;;13.40;82.50;;;;;;4945834;29;19906;-96
2023/05/18 05:32:23;;;;;;;;;;;13.50;81.00;;;;;;4943463;29;19915;-96
2023/05/18 05:34:51;;;;;;;;;;;13.60;80.70;;;;;;4927525;29;19918;-96
2023/05/18 05:37:19;;;;;;;;;;;13.80;81.30;;;;;;4923352;29;19895;-96
2023/05/18 05:39:53;;;;;;;;;;;13.90;81.20;;;;;;4927320;29;19945;-96
2023/05/18 05:42:24;;;;;;;;;;;14.00;80.30;;;;;;4927104;29;19895;-96
2023/05/18 05:44:51;;;;;;;;;;;14.20;79.00;;;;;;4926510;29;19923;-96
2023/05/18 05:47:17;;;;;;;;;;;14.30;78.50;;;;;;4941360;29;19935;-96
2023/05/18 05:49:47;;;;;;;;;;;14.40;77.60;;;;;;4923519;29;19915;-96
2023/05/18 05:52:13;;;;;;;;;;;14.50;77.30;;;;;;4922944;29;19911;-96
2023/05/18 06:05:04;;;;;;;;;;;15.00;76.00;;;;;;5786285;23;19935;-96
2023/05/18 08:16:39;;;;;;;;;;;18.20;55.30;;;;;;5855800;23;19935;-96
2023/05/18 08:27:08;;;;;;;;;;;18.20;58.50;;;;;;4939872;29;19927;-96
2023/05/18 08:45:57;;;;;;;;;;;18.70;56.50;;;;;;5783838;23;19942;-96
2023/05/18 11:21:01;;;;;;;;;;;22.70;46.30;;;;;;4640569;27;19962;-96
2023/05/18 12:35:58;;;;;;;;;;;22.70;45.90;;;;;;5138123;23;19933;-96
2023/05/18 12:38:28;;;;;;;;;;;22.70;46.20;;;;;;5717351;23;19922;-96
2023/05/18 16:35:59;;;;;;;;;;;21.80;55.80;;;;;;5170734;23;19962;-97
2023/05/18 16:38:46;;;;;;;;;;;21.80;55.10;;;;;;4978697;28;19913;-96
2023/05/18 16:41:21;;;;;;;;;;;21.80;54.50;;;;;;4954343;29;19898;-97
2023/05/18 16:44:07;;;;;;;;;;;21.70;55.20;;;;;;4957092;29;19919;-96
2023/05/18 16:51:59;;;;;;;;;;;21.50;58.40;;;;;;4923053;26;19927;-96
2023/05/18 16:54:32;;;;;;;;;;;21.40;58.70;;;;;;4941417;29;19984;-97
